createdAt,value
2022-08-14T00:02:21.072Z,23.67
2022-08-14T00:04:47.293Z,23.64
2022-08-14T00:07:14.192Z,23.72
2022-08-14T00:09:55.655Z,23.67
2022-08-14T00:12:33.776Z,23.62
2022-08-14T00:15:03.984Z,23.55
2022-08-14T00:17:31.608Z,23.58
2022-08-14T00:20:13.809Z,23.54
2022-08-14T00:22:56.464Z,23.49
2022-08-14T00:25:23.481Z,23.50
2022-08-14T00:27:54.137Z,23.46
2022-08-14T00:30:20.960Z,23.45
2022-08-14T00:32:55.953Z,23.43
2022-08-14T00:35:22.812Z,23.43
2022-08-14T00:38:09.488Z,23.34
2022-08-14T00:40:36.066Z,23.34
2022-08-14T00:43:02.205Z,23.31
2022-08-14T00:45:31.143Z,23.27
2022-08-14T00:47:57.410Z,23.31
2022-08-14T00:50:26.072Z,23.31
2022-08-14T00:52:54.278Z,23.37
2022-08-14T00:55:20.414Z,23.13
2022-08-14T00:57:46.558Z,23.20
2022-08-14T01:00:34.069Z,23.17
2022-08-14T01:03:03.306Z,23.15
2022-08-14T01:05:41.638Z,23.07
2022-08-14T01:08:20.605Z,23.04
2022-08-14T01:11:02.046Z,23.21
2022-08-14T01:13:42.319Z,23.03
2022-08-14T01:16:09.474Z,23.03
2022-08-14T01:18:40.094Z,22.96
2022-08-14T01:21:06.301Z,22.92
2022-08-14T01:23:41.753Z,22.93
2022-08-14T01:26:13.260Z,22.90
2022-08-14T01:28:56.730Z,22.82
2022-08-14T01:31:23.929Z,22.83
2022-08-14T01:34:00.450Z,22.83
2022-08-14T01:36:36.203Z,22.75
2022-08-14T01:39:09.502Z,22.79
2022-08-14T01:41:35.898Z,22.79
2022-08-14T01:44:02.166Z,22.79
2022-08-14T01:46:33.197Z,22.84
2022-08-14T01:49:02.725Z,22.83
2022-08-14T01:51:28.865Z,22.78
2022-08-14T01:53:56.509Z,22.78
2022-08-14T01:56:23.651Z,22.79
2022-08-14T01:58:57.994Z,22.75
2022-08-14T02:01:26.585Z,22.73
2022-08-14T02:03:53.469Z,22.72
2022-08-14T02:06:33.022Z,22.64
2022-08-14T02:08:59.943Z,22.66
2022-08-14T02:11:26.070Z,22.68
2022-08-14T02:13:52.209Z,22.60
2022-08-14T02:16:22.343Z,22.56
2022-08-14T02:18:49.225Z,22.53
2022-08-14T02:21:15.527Z,22.53
2022-08-14T02:23:45.564Z,22.53
2022-08-14T02:26:18.099Z,22.55
2022-08-14T02:28:57.267Z,22.54
2022-08-14T02:31:28.464Z,22.52
2022-08-14T02:34:02.651Z,22.48
2022-08-14T02:37:04.486Z,22.54
2022-08-14T02:39:26.987Z,22.46
2022-08-14T02:41:58.162Z,22.49
2022-08-14T02:44:29.806Z,22.45
2022-08-14T02:47:01.294Z,22.47
2022-08-14T02:49:31.520Z,22.45
2022-08-14T02:52:00.254Z,22.46
2022-08-14T02:54:26.390Z,22.46
2022-08-14T02:57:16.625Z,22.48
2022-08-14T02:59:39.100Z,22.40
2022-08-14T03:02:05.289Z,22.37
2022-08-14T03:04:32.609Z,22.43
2022-08-14T03:07:06.333Z,22.37
2022-08-14T03:10:24.395Z,22.31
2022-08-14T03:12:30.791Z,22.34
2022-08-14T03:14:58.672Z,22.28
2022-08-14T03:17:24.808Z,22.23
2022-08-14T03:19:51.462Z,22.20
2022-08-14T03:22:17.987Z,22.20
2022-08-14T03:24:44.218Z,22.15
2022-08-14T03:27:10.785Z,22.11
2022-08-14T03:29:36.917Z,22.10
2022-08-14T03:32:06.863Z,22.16
2022-08-14T03:34:47.887Z,22.11
2022-08-14T03:37:52.216Z,22.10
2022-08-14T03:40:00.991Z,22.04
2022-08-14T03:42:35.818Z,22.04
2022-08-14T03:45:18.683Z,22.03
2022-08-14T03:47:58.321Z,22.01
2022-08-14T03:50:30.810Z,21.92
2022-08-14T03:53:00.457Z,21.87
2022-08-14T03:55:26.965Z,21.75
2022-08-14T03:57:53.658Z,21.81
2022-08-14T04:00:44.314Z,21.84
2022-08-14T04:03:06.415Z,21.81
2022-08-14T04:05:42.833Z,21.83
2022-08-14T04:08:23.089Z,21.85
2022-08-14T04:10:56.526Z,21.81
2022-08-14T04:13:23.771Z,21.79
2022-08-14T04:15:56.293Z,21.77
2022-08-14T04:18:27.868Z,21.76
2022-08-14T04:20:55.791Z,21.70
2022-08-14T04:23:23.690Z,21.68
2022-08-14T04:25:55.436Z,21.70
2022-08-14T04:29:06.835Z,21.68
2022-08-14T04:31:07.712Z,21.71
2022-08-14T04:33:34.468Z,21.67
2022-08-14T04:36:00.607Z,21.66
2022-08-14T04:38:37.280Z,21.54
2022-08-14T04:41:04.610Z,21.53
2022-08-14T04:43:39.298Z,21.50
2022-08-14T04:46:06.849Z,21.52
2022-08-14T04:48:43.119Z,21.58
2022-08-14T04:51:17.107Z,21.62
2022-08-14T04:53:43.729Z,21.62
2022-08-14T04:56:10.769Z,21.62
2022-08-14T04:58:56.153Z,21.51
2022-08-14T05:01:22.363Z,21.50
2022-08-14T05:03:48.632Z,21.50
2022-08-14T05:06:35.040Z,21.58
2022-08-14T05:09:02.946Z,21.65
2022-08-14T05:11:29.639Z,21.71
2022-08-14T05:14:34.127Z,21.78
2022-08-14T05:16:41.936Z,21.80
2022-08-14T05:19:18.183Z,21.85
2022-08-14T05:22:00.149Z,21.81
2022-08-14T05:24:37.465Z,21.89
2022-08-14T05:27:03.662Z,21.95
2022-08-14T05:29:29.830Z,21.95
2022-08-14T05:31:58.043Z,21.91
2022-08-14T05:34:28.911Z,21.90
2022-08-14T05:37:02.525Z,21.88
2022-08-14T05:39:29.562Z,21.96
2022-08-14T05:41:55.762Z,21.99
2022-08-14T05:44:21.888Z,21.99
2022-08-14T05:46:48.059Z,22.04
2022-08-14T05:49:14.212Z,22.11
2022-08-14T05:51:40.590Z,22.13
2022-08-14T05:54:13.076Z,22.19
2022-08-14T05:56:46.451Z,22.25
2022-08-14T05:59:12.606Z,22.28
2022-08-14T06:01:41.013Z,22.29
2022-08-14T06:04:07.192Z,22.33
2022-08-14T06:06:38.162Z,22.23
2022-08-14T06:09:04.815Z,22.29
2022-08-14T06:11:31.411Z,22.27
2022-08-14T06:13:58.819Z,22.21
2022-08-14T06:16:24.957Z,22.24
2022-08-14T06:18:52.986Z,22.30
2022-08-14T06:21:19.539Z,22.29
2022-08-14T06:23:49.143Z,22.31
2022-08-14T06:26:15.417Z,22.37
2022-08-14T06:28:45.623Z,22.55
2022-08-14T06:31:11.891Z,22.59
2022-08-14T06:35:01.499Z,22.65
2022-08-14T06:36:24.529Z,22.75
2022-08-14T06:38:50.693Z,22.70
2022-08-14T06:41:19.144Z,22.80
2022-08-14T06:43:47.216Z,22.85
2022-08-14T06:46:23.236Z,22.84
2022-08-14T06:48:58.859Z,22.92
2022-08-14T06:51:24.981Z,22.99
2022-08-14T06:54:05.233Z,23.07
2022-08-14T06:56:34.562Z,23.12
2022-08-14T06:59:01.347Z,23.15
2022-08-14T07:01:31.405Z,23.22
2022-08-14T07:03:57.599Z,23.38
2022-08-14T07:06:46.515Z,23.37
2022-08-14T07:09:09.923Z,23.51
2022-08-14T07:11:36.904Z,23.59
2022-08-14T07:14:03.034Z,23.65
2022-08-14T07:16:29.886Z,23.66
2022-08-14T07:18:56.423Z,23.67
2022-08-14T07:21:22.557Z,23.68
2022-08-14T07:23:48.726Z,23.69
2022-08-14T07:26:17.769Z,23.80
2022-08-14T07:28:44.117Z,23.83
2022-08-14T07:31:10.303Z,23.81
2022-08-14T07:33:36.487Z,24.02
2022-08-14T07:36:03.287Z,24.06
2022-08-14T07:38:37.870Z,24.16
2022-08-14T07:41:04.316Z,24.24
2022-08-14T07:43:38.258Z,24.35
2022-08-14T07:46:04.829Z,24.37
2022-08-14T07:48:31.051Z,24.44
2022-08-14T07:51:02.082Z,24.45
2022-08-14T07:53:29.936Z,24.56
2022-08-14T07:56:21.898Z,24.62
2022-08-14T07:58:51.778Z,24.69
2022-08-14T08:01:19.219Z,24.61
2022-08-14T08:03:49.507Z,24.65
2022-08-14T08:06:17.342Z,24.80
2022-08-14T08:08:43.965Z,24.89
2022-08-14T08:11:24.828Z,24.88
2022-08-14T08:13:54.611Z,24.94
2022-08-14T08:16:20.824Z,25.00
2022-08-14T08:18:50.251Z,24.95
2022-08-14T08:21:16.394Z,25.01
2022-08-14T08:23:51.355Z,25.09
2022-08-14T08:26:17.750Z,25.11
2022-08-14T08:28:44.096Z,25.23
2022-08-14T08:31:10.609Z,25.33
2022-08-14T08:33:37.986Z,25.37
2022-08-14T08:36:04.133Z,25.37
2022-08-14T08:39:17.002Z,25.50
2022-08-14T08:41:16.825Z,25.56
2022-08-14T08:43:46.030Z,25.64
2022-08-14T08:46:21.191Z,25.59
2022-08-14T08:48:53.942Z,25.64
2022-08-14T08:51:19.471Z,25.69
2022-08-14T08:53:45.827Z,25.72
2022-08-14T08:56:11.986Z,25.82
2022-08-14T08:58:56.594Z,25.89
2022-08-14T09:01:23.146Z,25.90
2022-08-14T09:03:49.306Z,25.92
2022-08-14T09:07:01.311Z,25.88
2022-08-14T09:09:01.607Z,25.91
2022-08-14T09:11:27.741Z,26.02
2022-08-14T09:13:54.023Z,26.08
2022-08-14T09:16:20.181Z,26.19
2022-08-14T09:18:46.310Z,26.34
2022-08-14T09:21:13.701Z,26.45
2022-08-14T09:24:26.348Z,26.62
2022-08-14T09:26:28.992Z,26.51
2022-08-14T09:28:58.447Z,26.47
2022-08-14T09:31:24.586Z,26.51
2022-08-14T09:33:56.438Z,26.52
2022-08-14T09:36:23.649Z,26.66
2022-08-14T09:38:49.824Z,26.78
2022-08-14T09:41:15.956Z,26.98
2022-08-14T09:43:43.782Z,27.01
2022-08-14T09:46:10.296Z,27.02
2022-08-14T09:48:36.526Z,27.08
2022-08-14T09:54:12.866Z,27.46
2022-08-14T09:56:14.397Z,27.45
2022-08-14T09:58:56.941Z,27.68
2022-08-14T10:01:24.749Z,27.65
2022-08-14T10:03:53.700Z,27.94
2022-08-14T10:06:19.979Z,27.97
2022-08-14T10:08:50.592Z,28.04
2022-08-14T10:11:17.651Z,28.20
2022-08-14T10:13:52.767Z,28.27
2022-08-14T10:16:21.972Z,28.15
2022-08-14T10:18:53.675Z,28.13
2022-08-14T10:21:19.816Z,28.28
2022-08-14T10:23:48.766Z,28.19
2022-08-14T10:26:22.782Z,28.34
2022-08-14T10:29:18.765Z,28.50
2022-08-14T10:31:44.611Z,28.30
2022-08-14T10:34:13.445Z,28.38
2022-08-14T10:36:40.941Z,28.38
2022-08-14T10:39:12.222Z,28.44
2022-08-14T10:41:48.552Z,28.69
2022-08-14T10:44:21.399Z,28.83
2022-08-14T10:47:39.772Z,28.85
2022-08-14T10:49:34.176Z,28.59
2022-08-14T10:52:00.358Z,28.47
2022-08-14T10:54:37.266Z,28.45
2022-08-14T10:57:07.452Z,28.37
2022-08-14T10:59:36.130Z,28.52
2022-08-14T11:02:06.390Z,28.78
2022-08-14T11:04:33.282Z,28.78
2022-08-14T11:06:59.456Z,28.88
2022-08-14T11:09:26.056Z,29.01
2022-08-14T11:11:55.155Z,29.09
2022-08-14T11:14:22.637Z,29.20
2022-08-14T11:16:49.193Z,29.20
2022-08-14T11:19:19.937Z,29.04
2022-08-14T11:21:50.362Z,29.01
2022-08-14T11:24:50.663Z,29.14
2022-08-14T11:27:08.605Z,29.25
2022-08-14T11:29:35.987Z,29.17
2022-08-14T11:32:02.461Z,29.14
2022-08-14T11:34:32.050Z,29.20
2022-08-14T11:37:19.049Z,29.42
2022-08-14T11:39:45.813Z,29.46
2022-08-14T11:42:57.021Z,29.44
2022-08-14T11:45:00.190Z,29.54
2022-08-14T11:47:26.693Z,29.67
2022-08-14T11:50:01.830Z,29.60
2022-08-14T11:52:28.157Z,29.51
2022-08-14T11:54:54.281Z,29.46
2022-08-14T11:57:22.806Z,29.52
2022-08-14T11:59:49.144Z,29.56
2022-08-14T12:03:00.906Z,29.68
2022-08-14T12:05:09.637Z,29.93
2022-08-14T12:07:36.027Z,30.04
2022-08-14T12:10:26.232Z,30.18
2022-08-14T12:12:48.614Z,30.04
2022-08-14T12:15:17.822Z,30.11
2022-08-14T12:17:47.703Z,30.08
2022-08-14T12:20:15.949Z,30.00
2022-08-14T12:22:58.592Z,30.02
2022-08-14T12:25:26.370Z,30.01
2022-08-14T12:27:54.389Z,30.05
2022-08-14T12:30:24.915Z,30.09
2022-08-14T12:32:53.008Z,30.14
2022-08-14T12:35:19.142Z,30.28
2022-08-14T12:37:47.177Z,30.44
2022-08-14T12:40:13.484Z,30.69
2022-08-14T12:42:47.336Z,30.87
2022-08-14T12:45:18.775Z,30.84
2022-08-14T12:47:46.084Z,30.85
2022-08-14T12:50:17.595Z,30.74
2022-08-14T12:53:01.910Z,30.62
2022-08-14T12:56:17.599Z,30.33
2022-08-14T12:58:29.323Z,30.28
2022-08-14T13:01:17.093Z,30.51
2022-08-14T13:03:46.598Z,30.71
2022-08-14T13:06:12.755Z,30.91
2022-08-14T13:08:43.325Z,31.07
2022-08-14T13:11:18.798Z,31.13
2022-08-14T13:13:46.501Z,31.02
2022-08-14T13:16:21.045Z,31.12
2022-08-14T13:19:01.207Z,31.17
2022-08-14T13:21:27.523Z,31.30
2022-08-14T13:23:55.628Z,31.35
2022-08-14T13:26:24.256Z,31.29
2022-08-14T13:29:02.311Z,31.18
2022-08-14T13:31:30.153Z,31.36
2022-08-14T13:33:56.529Z,31.64
2022-08-14T13:36:51.471Z,31.79
2022-08-14T13:39:10.441Z,31.67
2022-08-14T13:41:39.085Z,31.66
2022-08-14T13:44:07.861Z,31.69
2022-08-14T13:46:39.920Z,31.75
2022-08-14T13:49:09.891Z,31.58
2022-08-14T13:51:36.016Z,31.66
2022-08-14T13:54:10.262Z,31.60
2022-08-14T13:56:37.312Z,31.51
2022-08-14T13:59:03.464Z,31.84
2022-08-14T14:01:32.961Z,32.11
2022-08-14T14:04:01.149Z,32.05
2022-08-14T14:06:28.624Z,32.07
2022-08-14T14:08:54.873Z,32.10
2022-08-14T14:11:25.168Z,32.23
2022-08-14T14:13:56.374Z,32.36
2022-08-14T14:16:30.209Z,32.44
2022-08-14T14:18:57.507Z,32.34
2022-08-14T14:21:23.690Z,32.07
2022-08-14T14:23:49.813Z,32.23
2022-08-14T14:26:20.017Z,32.32
2022-08-14T14:28:49.146Z,32.44
2022-08-14T14:31:16.430Z,32.52
2022-08-14T14:33:46.978Z,32.42
2022-08-14T14:36:14.276Z,32.32
2022-08-14T14:38:40.414Z,32.41
2022-08-14T14:41:06.624Z,32.40
2022-08-14T14:43:32.792Z,32.43
2022-08-14T14:45:59.044Z,32.48
2022-08-14T14:48:28.221Z,32.87
2022-08-14T14:50:54.739Z,33.16
2022-08-14T14:53:20.860Z,33.54
2022-08-14T14:56:49.867Z,34.03
2022-08-14T14:58:33.126Z,34.16
2022-08-14T15:01:00.362Z,33.55
2022-08-14T15:03:26.527Z,33.22
2022-08-14T15:05:53.665Z,33.40
2022-08-14T15:08:26.385Z,34.12
2022-08-14T15:11:06.683Z,33.78
2022-08-14T15:13:43.366Z,33.52
2022-08-14T15:16:19.546Z,34.49
2022-08-14T15:18:49.118Z,34.82
2022-08-14T15:21:15.504Z,35.16
2022-08-14T15:23:44.077Z,35.19
2022-08-14T15:26:11.111Z,34.40
2022-08-14T15:28:39.538Z,33.99
2022-08-14T15:31:05.682Z,34.99
2022-08-14T15:33:35.800Z,36.03
2022-08-14T15:36:02.074Z,36.56
2022-08-14T15:38:29.191Z,37.10
2022-08-14T15:40:56.358Z,36.70
2022-08-14T15:43:22.620Z,36.87
2022-08-14T15:45:48.753Z,37.52
2022-08-14T15:48:22.139Z,37.65
2022-08-14T15:50:49.159Z,37.75
2022-08-14T15:53:16.960Z,38.05
2022-08-14T15:55:43.293Z,38.25
2022-08-14T15:58:14.385Z,38.44
2022-08-14T16:00:44.409Z,38.36
2022-08-14T16:03:16.669Z,38.54
2022-08-14T16:05:43.075Z,39.06
2022-08-14T16:08:27.380Z,38.45
2022-08-14T16:10:55.704Z,39.09
2022-08-14T16:13:41.128Z,39.49
2022-08-14T16:16:47.586Z,39.58
2022-08-14T16:18:54.097Z,39.81
2022-08-14T16:21:20.464Z,40.06
2022-08-14T16:23:48.048Z,40.53
2022-08-14T16:26:19.846Z,39.46
2022-08-14T16:28:46.002Z,37.82
2022-08-14T16:31:12.125Z,37.19
2022-08-14T16:33:58.935Z,36.68
2022-08-14T16:36:30.566Z,36.63
2022-08-14T16:38:57.308Z,36.73
2022-08-14T16:41:26.264Z,36.06
2022-08-14T16:43:52.435Z,35.84
2022-08-14T16:46:22.540Z,36.03
2022-08-14T16:48:57.177Z,37.49
2022-08-14T16:51:24.381Z,37.45
2022-08-14T16:53:51.217Z,36.75
2022-08-14T16:56:23.701Z,36.29
2022-08-14T16:58:51.634Z,35.83
2022-08-14T17:01:24.968Z,35.84
2022-08-14T17:03:53.452Z,35.85
2022-08-14T17:06:30.650Z,35.10
2022-08-14T17:08:59.891Z,34.55
2022-08-14T17:11:27.864Z,34.30
2022-08-14T17:14:00.479Z,34.24
2022-08-14T17:16:27.411Z,34.10
2022-08-14T17:18:55.482Z,34.18
2022-08-14T17:21:31.226Z,34.05
2022-08-14T17:23:58.761Z,34.01
2022-08-14T17:26:27.268Z,33.99
2022-08-14T17:28:56.577Z,33.80
2022-08-14T17:31:22.740Z,33.69
2022-08-14T17:33:51.745Z,33.47
2022-08-14T17:36:21.004Z,33.37
2022-08-14T17:38:59.891Z,33.27
2022-08-14T17:41:27.257Z,33.25
2022-08-14T17:46:30.302Z,32.70
2022-08-14T17:49:14.063Z,32.59
2022-08-14T17:51:53.498Z,32.46
2022-08-14T17:54:22.746Z,32.30
2022-08-14T17:57:00.802Z,32.11
2022-08-14T17:59:26.924Z,31.95
2022-08-14T18:01:53.058Z,31.79
2022-08-14T18:04:28.517Z,31.63
2022-08-14T18:07:06.004Z,31.55
2022-08-14T18:09:36.234Z,31.44
2022-08-14T18:12:03.677Z,31.28
2022-08-14T18:14:32.913Z,30.68
2022-08-14T18:16:59.584Z,30.69
2022-08-14T18:19:26.982Z,30.70
2022-08-14T18:21:57.419Z,30.60
2022-08-14T18:24:29.359Z,30.46
2022-08-14T18:27:01.622Z,30.41
2022-08-14T18:29:31.556Z,30.23
2022-08-14T18:31:58.066Z,30.14
2022-08-14T18:34:32.365Z,30.10
2022-08-14T18:37:09.578Z,29.99
2022-08-14T18:40:03.249Z,29.96
2022-08-14T18:42:30.361Z,29.86
2022-08-14T18:44:56.881Z,29.64
2022-08-14T18:47:23.020Z,29.51
2022-08-14T18:49:49.326Z,29.26
2022-08-14T18:52:18.874Z,29.15
2022-08-14T18:54:48.667Z,29.27
2022-08-14T18:57:27.051Z,29.12
2022-08-14T19:00:06.395Z,28.96
2022-08-14T19:02:36.053Z,28.92
2022-08-14T19:05:09.412Z,28.82
2022-08-14T19:07:35.656Z,28.77
2022-08-14T19:10:01.866Z,28.73
2022-08-14T19:12:32.168Z,28.62
2022-08-14T19:15:04.699Z,28.54
2022-08-14T19:17:50.391Z,28.33
2022-08-14T19:20:18.182Z,28.20
2022-08-14T19:22:44.402Z,28.10
2022-08-14T19:25:10.722Z,28.07
2022-08-14T19:27:37.800Z,27.90
2022-08-14T19:30:04.247Z,27.73
2022-08-14T19:32:30.424Z,27.70
2022-08-14T19:35:00.005Z,27.55
2022-08-14T19:37:28.705Z,27.48
2022-08-14T19:40:15.546Z,27.31
2022-08-14T19:42:46.639Z,27.25
2022-08-14T19:45:13.488Z,27.34
2022-08-14T19:47:41.457Z,27.25
2022-08-14T19:50:38.655Z,27.31
2022-08-14T19:52:54.012Z,27.18
2022-08-14T19:55:20.238Z,27.05
2022-08-14T19:57:52.387Z,26.95
2022-08-14T20:00:28.616Z,26.88
2022-08-14T20:02:57.718Z,26.86
2022-08-14T20:05:27.135Z,26.76
2022-08-14T20:08:05.943Z,26.64
2022-08-14T20:11:05.841Z,26.68
2022-08-14T20:13:23.461Z,26.56
2022-08-14T20:15:50.118Z,26.36
2022-08-14T20:18:32.916Z,26.35
2022-08-14T20:21:02.474Z,26.27
2022-08-14T20:23:37.975Z,26.30
2022-08-14T20:26:05.356Z,26.40
2022-08-14T20:28:36.750Z,26.22
2022-08-14T20:31:17.880Z,26.11
2022-08-14T20:33:47.962Z,26.29
2022-08-14T20:36:14.401Z,26.24
2022-08-14T20:38:40.628Z,26.23
2022-08-14T20:41:16.619Z,26.29
2022-08-14T20:43:44.464Z,26.14
2022-08-14T20:46:10.730Z,26.12
2022-08-14T20:48:52.626Z,26.12
2022-08-14T20:51:19.810Z,26.22
2022-08-14T20:53:50.200Z,26.19
2022-08-14T20:56:29.791Z,26.18
2022-08-14T20:58:56.794Z,26.26
2022-08-14T21:01:22.996Z,26.16
2022-08-14T21:03:56.520Z,26.22
2022-08-14T21:06:23.694Z,26.25
2022-08-14T21:08:50.961Z,26.14
2022-08-14T21:11:17.762Z,26.10
2022-08-14T21:14:20.919Z,26.15
2022-08-14T21:16:35.692Z,26.12
2022-08-14T21:19:04.719Z,26.06
2022-08-14T21:21:40.598Z,26.11
2022-08-14T21:24:08.136Z,26.07
2022-08-14T21:26:52.677Z,26.05
2022-08-14T21:29:20.928Z,26.07
2022-08-14T21:31:55.589Z,26.04
2022-08-14T21:34:30.947Z,26.00
2022-08-14T21:36:58.170Z,26.00
2022-08-14T21:39:24.434Z,25.92
2022-08-14T21:41:58.761Z,25.88
2022-08-14T21:44:25.528Z,25.84
2022-08-14T21:47:09.573Z,25.81
2022-08-14T21:49:38.343Z,25.83
2022-08-14T21:52:51.764Z,25.89
2022-08-14T21:54:51.309Z,25.86
2022-08-14T21:57:17.621Z,25.75
2022-08-14T21:59:43.757Z,25.85
2022-08-14T22:02:32.616Z,25.90
2022-08-14T22:04:57.614Z,25.89
2022-08-14T22:07:29.142Z,25.89
2022-08-14T22:09:55.908Z,25.81
2022-08-14T22:12:57.596Z,25.77
2022-08-14T22:15:08.289Z,25.77
2022-08-14T22:17:35.367Z,25.69
2022-08-14T22:20:01.505Z,25.78
2022-08-14T22:22:31.189Z,25.80
2022-08-14T22:24:59.941Z,25.82
2022-08-14T22:27:26.773Z,25.68
2022-08-14T22:29:54.719Z,25.72
2022-08-14T22:32:30.183Z,25.79
2022-08-14T22:35:10.674Z,25.76
2022-08-14T22:37:37.882Z,25.71
2022-08-14T22:40:51.078Z,25.78
2022-08-14T22:43:00.200Z,25.70
2022-08-14T22:45:27.124Z,25.58
2022-08-14T22:48:02.895Z,25.57
2022-08-14T22:50:33.594Z,25.65
2022-08-14T22:53:00.085Z,25.61
2022-08-14T22:55:26.616Z,25.64
2022-08-14T22:57:52.756Z,25.63
2022-08-14T23:00:19.539Z,25.63
2022-08-14T23:02:45.776Z,25.47
2022-08-14T23:05:11.960Z,25.55
2022-08-14T23:08:56.851Z,25.58
2022-08-14T23:10:33.480Z,25.48
2022-08-14T23:13:00.800Z,25.38
2022-08-14T23:15:29.860Z,25.32
2022-08-14T23:17:56.424Z,25.37
2022-08-14T23:20:22.572Z,25.46
2022-08-14T23:22:49.027Z,25.34
2022-08-14T23:25:17.729Z,25.26
2022-08-14T23:28:04.058Z,25.23
2022-08-14T23:30:34.533Z,25.24
2022-08-14T23:33:01.752Z,25.21
2022-08-14T23:35:27.985Z,25.31
2022-08-14T23:37:54.167Z,25.18
2022-08-14T23:40:29.675Z,25.15
2022-08-14T23:42:56.492Z,25.24
2022-08-14T23:45:27.360Z,25.18
2022-08-14T23:48:03.764Z,25.14
2022-08-14T23:50:38.119Z,25.13
2022-08-14T23:53:07.420Z,25.17
2022-08-14T23:55:34.124Z,25.16
2022-08-14T23:58:00.676Z,25.31
